createdAt,value
2018-08-03T00:00:21.230Z,56050.12
2018-08-03T00:02:50.955Z,56023.38
2018-08-03T00:05:20.204Z,56002.82
2018-08-03T00:07:49.699Z,56040.86
2018-08-03T00:10:19.364Z,56014.13
2018-08-03T00:12:48.820Z,56008.99
2018-08-03T00:15:18.517Z,56010.02
2018-08-03T00:17:48.323Z,56014.13
2018-08-03T00:20:18.050Z,55994.59
2018-08-03T00:22:47.404Z,55991.51
2018-08-03T00:25:16.973Z,56034.70
2018-08-03T00:27:46.242Z,56036.75
2018-08-03T00:30:15.972Z,56017.21
2018-08-03T00:32:45.298Z,56026.47
2018-08-03T00:35:14.559Z,56034.70
2018-08-03T00:37:44.251Z,56035.72
2018-08-03T00:40:13.871Z,56014.13
2018-08-03T00:42:43.153Z,56040.86
2018-08-03T00:45:12.414Z,56038.81
2018-08-03T00:47:42.210Z,56029.55
2018-08-03T00:50:11.467Z,56042.92
2018-08-03T00:52:40.705Z,56038.81
2018-08-03T00:55:09.987Z,56028.52
2018-08-03T00:57:39.199Z,56030.58
2018-08-03T01:00:09.292Z,56030.58
2018-08-03T01:02:38.954Z,56044.98
2018-08-03T01:05:08.263Z,56036.75
2018-08-03T01:07:37.499Z,56060.40
2018-08-03T01:10:07.074Z,56044.98
2018-08-03T01:12:36.851Z,56050.12
2018-08-03T01:15:06.728Z,56020.30
2018-08-03T01:17:39.324Z,56061.43
2018-08-03T01:20:08.983Z,56038.81
2018-08-03T01:22:38.276Z,56051.14
2018-08-03T01:25:07.787Z,56032.64
2018-08-03T01:27:37.084Z,56043.95
2018-08-03T01:30:06.745Z,56037.78
2018-08-03T01:32:36.014Z,56049.09
2018-08-03T01:35:05.310Z,56046.00
2018-08-03T01:37:34.587Z,56048.06
2018-08-03T01:40:04.252Z,56032.64
2018-08-03T01:42:33.787Z,56036.75
2018-08-03T01:45:03.056Z,56032.64
2018-08-03T01:47:32.603Z,56038.81
2018-08-03T01:50:02.180Z,56071.71
2018-08-03T01:52:31.770Z,56040.86
2018-08-03T01:55:01.394Z,56069.65
2018-08-03T01:57:30.686Z,56073.77
2018-08-03T01:59:59.932Z,56042.92
2018-08-03T02:02:29.171Z,56057.32
2018-08-03T02:04:59.022Z,56040.86
2018-08-03T02:07:28.296Z,56053.20
2018-08-03T02:09:58.662Z,56072.74
2018-08-03T02:12:27.935Z,56038.81
2018-08-03T02:14:57.230Z,56062.46
2018-08-03T02:17:27.016Z,56072.74
2018-08-03T02:19:56.302Z,56069.65
2018-08-03T02:22:25.588Z,56050.12
2018-08-03T02:24:56.075Z,56041.89
2018-08-03T02:27:25.349Z,56050.12
2018-08-03T02:29:55.038Z,56057.32
2018-08-03T02:32:24.337Z,56057.32
2018-08-03T02:34:53.616Z,56040.86
2018-08-03T02:37:33.496Z,56056.29
2018-08-03T02:40:02.746Z,56074.80
2018-08-03T02:42:32.337Z,56060.40
2018-08-03T02:45:01.696Z,56051.14
2018-08-03T02:47:30.941Z,56082.00
2018-08-03T02:50:00.277Z,56060.40
2018-08-03T02:52:30.547Z,56051.14
2018-08-03T02:54:59.817Z,56041.89
2018-08-03T02:57:29.079Z,56071.71
2018-08-03T02:59:58.367Z,56044.98
2018-08-03T03:02:27.621Z,56087.14
2018-08-03T03:04:56.843Z,56051.14
2018-08-03T03:07:26.160Z,56156.03
2018-08-03T03:09:55.352Z,56037.78
2018-08-03T03:12:24.619Z,56077.88
2018-08-03T03:14:53.898Z,56079.94
2018-08-03T03:17:23.150Z,56083.02
2018-08-03T03:19:53.245Z,56088.16
2018-08-03T03:22:22.490Z,56040.86
2018-08-03T03:24:52.109Z,56065.54
2018-08-03T03:27:21.883Z,56099.47
2018-08-03T03:29:51.550Z,56077.88
2018-08-03T03:32:21.270Z,56069.65
2018-08-03T03:34:51.006Z,56083.02
2018-08-03T03:37:20.736Z,56079.94
2018-08-03T03:39:49.979Z,56072.74
2018-08-03T03:42:19.239Z,56086.11
2018-08-03T03:44:48.540Z,56075.82
2018-08-03T03:47:18.119Z,56075.82
2018-08-03T03:49:47.440Z,56061.43
2018-08-03T03:52:16.652Z,56079.94
2018-08-03T03:54:45.686Z,56069.65
2018-08-03T03:57:14.922Z,56065.54
2018-08-03T03:59:44.284Z,56062.46
2018-08-03T04:02:13.528Z,56093.30
2018-08-03T04:04:42.879Z,56091.25
2018-08-03T04:07:12.102Z,56083.02
2018-08-03T04:09:41.334Z,56058.34
2018-08-03T04:12:10.641Z,56096.39
2018-08-03T04:14:39.902Z,56080.96
2018-08-03T04:17:09.218Z,56061.43
2018-08-03T04:19:39.140Z,56044.98
2018-08-03T04:22:08.752Z,56067.60
2018-08-03T04:24:38.041Z,56059.37
2018-08-03T04:27:07.626Z,56058.34
2018-08-03T04:29:36.967Z,56051.14
2018-08-03T04:32:06.264Z,56031.61
2018-08-03T04:34:35.844Z,56057.32
2018-08-03T04:37:05.514Z,56025.44
2018-08-03T04:39:34.741Z,56089.19
2018-08-03T04:42:04.050Z,56053.20
2018-08-03T04:44:33.546Z,56049.09
2018-08-03T04:47:02.808Z,56061.43
2018-08-03T04:49:32.063Z,56053.20
2018-08-03T04:52:01.524Z,56051.14
2018-08-03T04:54:30.778Z,56071.71
2018-08-03T04:57:00.342Z,56038.81
2018-08-03T04:59:29.609Z,56059.37
2018-08-03T05:01:59.323Z,56061.43
2018-08-03T05:04:28.571Z,56047.03
2018-08-03T05:06:58.160Z,56007.96
2018-08-03T05:09:27.364Z,56018.24
2018-08-03T05:11:57.038Z,56026.47
2018-08-03T05:14:26.323Z,56020.30
2018-08-03T05:16:55.990Z,56040.86
2018-08-03T05:19:26.118Z,56005.90
2018-08-03T05:21:55.407Z,56033.67
2018-08-03T05:24:24.690Z,56018.24
2018-08-03T05:26:53.931Z,56015.16
2018-08-03T05:29:23.937Z,56005.90
2018-08-03T05:31:53.158Z,56016.19
2018-08-03T05:34:22.714Z,55997.68
2018-08-03T05:36:51.991Z,55997.68
2018-08-03T05:39:21.260Z,56005.90
2018-08-03T05:41:50.478Z,55987.40
2018-08-03T05:44:19.747Z,56010.02
2018-08-03T05:46:49.340Z,56010.02
2018-08-03T05:49:18.770Z,55987.40
2018-08-03T05:51:48.455Z,55975.06
2018-08-03T05:54:18.135Z,55987.40
2018-08-03T05:56:47.406Z,55962.72
2018-08-03T05:59:17.069Z,55966.83
2018-08-03T06:01:46.294Z,55965.80
2018-08-03T06:04:15.862Z,55973.00
2018-08-03T06:06:45.156Z,55965.80
2018-08-03T06:09:14.398Z,55927.76
2018-08-03T06:11:43.768Z,55923.65
2018-08-03T06:14:13.038Z,55819.80
2018-08-03T06:16:42.618Z,55759.14
2018-08-03T06:19:12.509Z,55771.48
2018-08-03T06:21:41.815Z,55731.38
2018-08-03T06:24:11.326Z,55711.84
2018-08-03T06:26:40.535Z,55711.84
2018-08-03T06:29:10.003Z,55684.08
2018-08-03T06:31:39.292Z,55718.01
2018-08-03T06:34:08.539Z,55726.24
2018-08-03T06:36:37.852Z,55767.36
2018-08-03T06:39:09.570Z,55870.18
2018-08-03T06:41:39.139Z,55892.80
2018-08-03T06:44:08.413Z,55922.62
2018-08-03T06:46:38.215Z,55923.65
2018-08-03T06:49:07.758Z,55926.73
2018-08-03T06:51:36.970Z,55957.58
2018-08-03T06:54:06.309Z,55960.66
2018-08-03T06:56:35.609Z,55975.06
2018-08-03T06:59:04.987Z,55957.58
2018-08-03T07:01:34.262Z,55958.61
2018-08-03T07:04:03.891Z,55955.52
2018-08-03T07:06:33.518Z,55977.11
2018-08-03T07:09:02.798Z,55968.89
2018-08-03T07:11:32.912Z,55950.38
2018-08-03T07:14:02.177Z,56026.47
2018-08-03T07:16:31.984Z,55955.52
2018-08-03T07:19:01.563Z,55950.38
2018-08-03T07:21:30.815Z,55969.92
2018-08-03T07:24:00.105Z,55937.01
2018-08-03T07:26:29.364Z,55975.06
2018-08-03T07:28:58.595Z,55964.78
2018-08-03T07:31:27.954Z,55960.66
2018-08-03T07:33:57.233Z,55951.41
2018-08-03T07:36:26.526Z,55960.66
2018-08-03T07:38:56.251Z,55952.44
2018-08-03T07:41:25.568Z,55932.90
2018-08-03T07:43:54.787Z,55945.24
2018-08-03T07:46:24.403Z,55944.21
2018-08-03T07:48:53.991Z,55933.93
2018-08-03T07:51:23.640Z,55939.07
2018-08-03T07:53:52.903Z,55940.10
2018-08-03T07:56:22.104Z,55934.96
2018-08-03T07:58:51.367Z,55948.32
2018-08-03T08:01:20.663Z,55952.44
2018-08-03T08:03:49.936Z,55938.04
2018-08-03T08:06:19.252Z,55929.82
2018-08-03T08:08:48.855Z,55933.93
2018-08-03T08:11:18.492Z,55926.73
2018-08-03T08:13:47.776Z,55929.82
2018-08-03T08:16:17.379Z,55929.82
2018-08-03T08:18:47.838Z,55916.45
2018-08-03T08:21:17.715Z,55928.79
2018-08-03T08:23:47.030Z,55903.08
2018-08-03T08:26:16.715Z,55938.04
2018-08-03T08:28:45.992Z,55917.48
2018-08-03T08:31:15.247Z,55915.42
2018-08-03T08:33:44.535Z,55915.42
2018-08-03T08:36:13.820Z,55911.31
2018-08-03T08:38:43.094Z,55916.45
2018-08-03T08:41:12.644Z,55901.03
2018-08-03T08:43:44.551Z,55917.48
2018-08-03T08:46:14.074Z,55908.23
2018-08-03T08:48:43.355Z,55904.11
2018-08-03T08:51:13.006Z,55893.83
2018-08-03T08:53:42.289Z,55890.75
2018-08-03T08:56:11.522Z,55890.75
2018-08-03T08:58:41.217Z,55883.55
2018-08-03T09:01:10.522Z,55884.57
2018-08-03T09:03:40.134Z,55871.21
2018-08-03T09:06:09.467Z,55867.10
2018-08-03T09:08:38.667Z,55847.56
2018-08-03T09:11:08.846Z,55840.36
2018-08-03T09:13:38.079Z,55821.86
2018-08-03T09:16:07.615Z,55764.28
2018-08-03T09:18:36.943Z,55731.38
2018-08-03T09:21:06.583Z,55713.90
2018-08-03T09:23:35.860Z,55674.83
2018-08-03T09:26:05.103Z,55714.93
2018-08-03T09:28:34.422Z,55685.11
2018-08-03T09:31:03.716Z,55684.08
2018-08-03T09:33:33.798Z,55691.28
2018-08-03T09:36:03.043Z,55684.08
2018-08-03T09:38:32.248Z,55702.59
2018-08-03T09:41:01.538Z,55683.05
2018-08-03T09:43:30.635Z,55713.90
2018-08-03T09:46:01.159Z,55674.83
2018-08-03T09:48:30.442Z,55706.70
2018-08-03T09:50:59.657Z,55754.00
2018-08-03T09:53:29.616Z,55697.45
2018-08-03T09:55:58.878Z,55757.08
2018-08-03T09:58:28.155Z,55718.01
2018-08-03T10:01:01.853Z,55700.54
2018-08-03T10:03:31.589Z,55719.04
2018-08-03T10:06:00.605Z,55709.79
2018-08-03T10:08:30.742Z,55697.45
2018-08-03T10:11:00.064Z,55720.07
2018-08-03T10:13:29.739Z,55701.56
2018-08-03T10:15:59.319Z,55715.96
2018-08-03T10:18:28.677Z,55719.04
2018-08-03T10:21:04.912Z,55736.52
2018-08-03T10:23:34.159Z,55707.73
2018-08-03T10:26:04.263Z,55742.69
2018-08-03T10:28:33.815Z,55736.52
2018-08-03T10:31:03.403Z,55746.80
2018-08-03T10:33:32.685Z,55784.84
2018-08-03T10:36:02.175Z,55796.15
2018-08-03T10:38:32.078Z,55812.60
2018-08-03T10:41:01.622Z,55825.97
2018-08-03T10:43:31.064Z,55860.93
2018-08-03T10:46:00.427Z,55864.01
2018-08-03T10:48:30.427Z,55851.68
2018-08-03T10:50:59.769Z,55865.04
2018-08-03T10:53:29.094Z,55857.84
2018-08-03T10:55:58.345Z,55843.45
2018-08-03T10:58:27.972Z,55845.50
2018-08-03T11:00:57.905Z,55857.84
2018-08-03T11:03:27.159Z,55842.42
2018-08-03T11:05:56.644Z,55830.08
2018-08-03T11:08:26.730Z,55839.34
2018-08-03T11:10:55.941Z,55859.90
2018-08-03T11:13:25.197Z,55866.07
2018-08-03T11:15:54.876Z,55861.95
2018-08-03T11:18:24.104Z,55850.64
2018-08-03T11:20:53.974Z,55852.70
2018-08-03T11:23:23.644Z,55856.81
2018-08-03T11:25:53.207Z,55841.39
2018-08-03T11:28:22.896Z,55837.28
2018-08-03T11:30:55.506Z,55830.08
2018-08-03T11:33:25.407Z,55829.05
2018-08-03T11:35:55.631Z,55844.48
2018-08-03T11:38:25.262Z,55798.21
2018-08-03T11:40:54.628Z,55777.64
2018-08-03T11:43:23.977Z,55799.24
2018-08-03T11:45:53.226Z,55824.94
2018-08-03T11:48:22.571Z,55846.53
2018-08-03T11:50:52.603Z,55837.28
2018-08-03T11:53:21.920Z,55829.05
2018-08-03T11:55:51.608Z,55821.86
2018-08-03T11:58:20.866Z,55853.73
2018-08-03T12:00:50.263Z,55842.42
2018-08-03T12:03:19.838Z,55811.57
2018-08-03T12:05:49.509Z,55814.66
2018-08-03T12:08:18.740Z,55824.94
2018-08-03T12:10:47.970Z,55846.53
2018-08-03T12:13:17.236Z,55845.50
2018-08-03T12:15:46.508Z,55825.97
2018-08-03T12:18:16.665Z,55843.45
2018-08-03T12:20:47.794Z,55848.59
2018-08-03T12:23:17.133Z,55839.34
2018-08-03T12:25:46.438Z,55833.17
2018-08-03T12:28:15.688Z,55830.08
2018-08-03T12:30:45.250Z,55835.22
2018-08-03T12:33:14.459Z,55857.84
2018-08-03T12:35:43.780Z,55825.97
2018-08-03T12:38:13.720Z,55808.49
2018-08-03T12:40:43.016Z,55809.52
2018-08-03T12:43:12.367Z,55799.24
2018-08-03T12:45:41.535Z,55796.15
2018-08-03T12:48:11.123Z,55812.60
2018-08-03T12:50:40.695Z,55804.38
2018-08-03T12:53:09.994Z,55804.38
2018-08-03T12:55:39.071Z,55796.15
2018-08-03T12:58:08.693Z,55800.27
2018-08-03T13:00:38.287Z,55801.29
2018-08-03T13:03:07.996Z,55803.35
2018-08-03T13:05:37.506Z,55784.84
2018-08-03T13:08:07.356Z,55793.07
2018-08-03T13:10:43.776Z,55795.12
2018-08-03T13:13:13.289Z,55807.46
2018-08-03T13:15:42.589Z,55839.34
2018-08-03T13:18:11.912Z,55801.29
2018-08-03T13:20:41.648Z,55802.32
2018-08-03T13:23:11.051Z,55799.24
2018-08-03T13:25:40.329Z,55800.27
2018-08-03T13:28:10.057Z,55777.64
2018-08-03T13:30:39.294Z,55776.62
2018-08-03T13:33:09.134Z,55763.25
2018-08-03T13:35:38.290Z,55758.11
2018-08-03T13:38:07.972Z,55771.48
2018-08-03T13:40:37.526Z,55761.20
2018-08-03T13:43:07.338Z,55764.28
2018-08-03T13:45:36.617Z,55769.42
2018-08-03T13:48:05.881Z,55763.25
2018-08-03T13:50:35.142Z,55765.31
2018-08-03T13:53:04.464Z,55793.07
2018-08-03T13:55:34.057Z,55786.90
2018-08-03T13:58:03.670Z,55783.81
2018-08-03T14:00:32.936Z,55787.93
2018-08-03T14:03:02.240Z,55783.81
2018-08-03T14:05:31.574Z,55791.01
2018-08-03T14:08:00.838Z,55784.84
2018-08-03T14:10:30.507Z,55804.38
2018-08-03T14:12:59.758Z,55792.04
2018-08-03T14:15:29.040Z,55804.38
2018-08-03T14:17:58.328Z,55765.31
2018-08-03T14:20:27.578Z,55788.95
2018-08-03T14:22:57.232Z,55812.60
2018-08-03T14:25:26.548Z,55789.98
2018-08-03T14:27:55.754Z,55782.79
2018-08-03T14:30:24.980Z,55794.10
2018-08-03T14:32:54.539Z,55832.14
2018-08-03T14:35:24.157Z,55785.87
2018-08-03T14:37:53.397Z,55799.24
2018-08-03T14:40:22.632Z,55820.83
2018-08-03T14:42:52.208Z,55818.77
2018-08-03T14:45:21.874Z,55812.60
2018-08-03T14:47:51.123Z,55810.55
2018-08-03T14:50:20.641Z,55800.27
2018-08-03T14:52:50.291Z,55789.98
2018-08-03T14:55:19.505Z,55825.97
2018-08-03T14:57:48.751Z,55833.17
2018-08-03T15:00:18.316Z,55835.22
2018-08-03T15:02:47.882Z,55805.41
2018-08-03T15:05:17.143Z,55824.94
2018-08-03T15:07:47.100Z,55817.75
2018-08-03T15:10:16.682Z,55809.52
2018-08-03T15:12:45.947Z,55815.69
2018-08-03T15:15:15.482Z,55811.57
2018-08-03T15:17:44.755Z,55799.24
2018-08-03T15:20:14.143Z,55839.34
2018-08-03T15:22:43.858Z,55816.71
2018-08-03T15:25:13.167Z,55824.94
2018-08-03T15:27:42.433Z,55822.88
2018-08-03T15:30:12.352Z,55805.41
2018-08-03T15:32:41.599Z,55830.08
2018-08-03T15:35:10.813Z,55812.60
2018-08-03T15:37:40.104Z,55836.25
2018-08-03T15:40:09.376Z,55839.34
2018-08-03T15:42:38.878Z,55839.34
2018-08-03T15:45:09.111Z,55818.77
2018-08-03T15:47:38.324Z,55831.11
2018-08-03T15:50:07.771Z,55825.97
2018-08-03T15:52:37.020Z,55827.00
2018-08-03T15:55:06.336Z,55844.48
2018-08-03T15:57:35.777Z,55831.11
2018-08-03T16:00:06.610Z,55846.53
2018-08-03T16:02:35.874Z,55833.17
2018-08-03T16:05:05.408Z,55846.53
2018-08-03T16:07:34.626Z,55832.14
2018-08-03T16:10:03.864Z,55838.31
2018-08-03T16:12:33.577Z,55850.64
2018-08-03T16:15:03.063Z,55847.56
2018-08-03T16:17:32.390Z,55859.90
2018-08-03T16:20:02.043Z,55843.45
2018-08-03T16:22:31.387Z,55853.73
2018-08-03T16:25:01.108Z,55819.80
2018-08-03T16:27:30.374Z,55839.34
2018-08-03T16:30:00.295Z,55832.14
2018-08-03T16:32:29.575Z,55866.07
2018-08-03T16:34:59.272Z,55833.17
2018-08-03T16:37:28.974Z,55821.86
2018-08-03T16:39:58.227Z,55843.45
2018-08-03T16:42:27.895Z,55835.22
2018-08-03T16:44:57.544Z,55843.45
2018-08-03T16:47:27.186Z,55855.79
2018-08-03T16:49:56.402Z,55845.50
2018-08-03T16:52:26.157Z,55869.15
2018-08-03T16:54:55.784Z,55848.59
2018-08-03T16:57:25.083Z,55848.59
2018-08-03T16:59:54.754Z,55844.48
2018-08-03T17:02:24.220Z,55849.62
2018-08-03T17:04:53.496Z,55862.98
2018-08-03T17:07:23.075Z,55864.01
2018-08-03T17:09:52.691Z,55867.10
2018-08-03T17:12:21.990Z,55860.93
2018-08-03T17:14:51.360Z,55866.07
2018-08-03T17:17:20.590Z,55855.79
2018-08-03T17:19:49.839Z,55859.90
2018-08-03T17:22:19.108Z,55872.24
2018-08-03T17:24:48.730Z,55862.98
2018-08-03T17:27:18.315Z,55850.64
2018-08-03T17:29:48.215Z,55856.81
2018-08-03T17:32:17.455Z,55860.93
2018-08-03T17:34:46.684Z,55867.10
2018-08-03T17:37:15.959Z,55855.79
2018-08-03T17:39:45.235Z,55872.24
2018-08-03T17:42:14.225Z,55850.64
2018-08-03T17:44:43.924Z,55876.35
2018-08-03T17:47:13.548Z,55888.69
2018-08-03T17:49:42.811Z,55871.21
2018-08-03T17:52:12.359Z,55868.12
2018-08-03T17:54:41.618Z,55868.12
2018-08-03T17:57:11.214Z,55860.93
2018-08-03T17:59:40.644Z,55886.63
2018-08-03T18:02:09.905Z,55845.50
2018-08-03T18:04:39.173Z,55889.72
2018-08-03T18:07:08.792Z,55860.93
2018-08-03T18:09:38.055Z,55877.38
2018-08-03T18:12:07.514Z,55861.95
2018-08-03T18:14:36.791Z,55895.89
2018-08-03T18:17:06.358Z,55890.75
2018-08-03T18:19:35.891Z,55878.41
2018-08-03T18:22:05.128Z,55900.00
2018-08-03T18:24:34.395Z,55922.62
2018-08-03T18:27:03.946Z,55890.75
2018-08-03T18:29:33.163Z,55901.03
2018-08-03T18:32:02.836Z,55884.57
2018-08-03T18:34:32.100Z,55886.63
2018-08-03T18:37:01.347Z,55907.20
2018-08-03T18:39:30.570Z,55912.34
2018-08-03T18:42:00.324Z,55896.91
2018-08-03T18:44:29.613Z,55905.14
2018-08-03T18:46:58.935Z,55923.65
2018-08-03T18:49:28.216Z,55879.43
2018-08-03T18:51:58.146Z,55897.94
2018-08-03T18:54:27.394Z,55895.89
2018-08-03T18:56:57.675Z,55910.28
2018-08-03T18:59:26.906Z,55917.48
2018-08-03T19:01:56.727Z,55925.70
2018-08-03T19:04:25.964Z,55919.54
2018-08-03T19:06:55.986Z,55923.65
2018-08-03T19:09:25.258Z,55910.28
2018-08-03T19:11:55.479Z,55940.10
2018-08-03T19:14:25.628Z,55914.39
2018-08-03T19:16:54.869Z,55921.59
2018-08-03T19:19:25.008Z,55877.38
2018-08-03T19:21:54.370Z,55898.97
2018-08-03T19:24:23.564Z,55919.54
2018-08-03T19:26:52.829Z,55888.69
2018-08-03T19:29:22.054Z,55909.25
2018-08-03T19:31:51.388Z,55901.03
2018-08-03T19:34:20.566Z,55878.41
2018-08-03T19:36:49.860Z,55917.48
2018-08-03T19:39:19.157Z,55895.89
2018-08-03T19:41:48.420Z,55946.27
2018-08-03T19:44:17.989Z,55917.48
2018-08-03T19:46:47.689Z,55928.79
2018-08-03T19:49:17.253Z,55929.82
2018-08-03T19:51:46.523Z,55915.42
2018-08-03T19:54:16.526Z,55913.36
2018-08-03T19:56:46.273Z,55900.00
2018-08-03T19:59:15.999Z,55925.70
2018-08-03T20:01:45.007Z,55907.20
2018-08-03T20:04:14.263Z,55908.23
2018-08-03T20:06:44.035Z,55927.76
2018-08-03T20:09:13.710Z,55935.98
2018-08-03T20:11:43.424Z,55903.08
2018-08-03T20:14:12.679Z,55931.87
2018-08-03T20:16:41.968Z,55907.20
2018-08-03T20:19:11.240Z,55926.73
2018-08-03T20:21:40.675Z,55940.10
2018-08-03T20:24:09.913Z,55912.34
2018-08-03T20:26:39.138Z,55917.48
2018-08-03T20:29:08.425Z,55934.96
2018-08-03T20:31:37.729Z,55930.84
2018-08-03T20:34:07.250Z,55927.76
2018-08-03T20:36:36.522Z,55931.87
2018-08-03T20:39:09.107Z,55896.91
2018-08-03T20:41:38.425Z,55927.76
2018-08-03T20:44:07.708Z,55934.96
2018-08-03T20:46:36.981Z,55932.90
2018-08-03T20:49:06.608Z,55933.93
2018-08-03T20:51:35.928Z,55930.84
2018-08-03T20:54:05.162Z,55935.98
2018-08-03T20:56:34.456Z,55917.48
2018-08-03T20:59:03.751Z,55888.69
2018-08-03T21:01:33.378Z,55945.24
2018-08-03T21:04:02.694Z,55925.70
2018-08-03T21:06:31.972Z,55927.76
2018-08-03T21:09:01.230Z,55929.82
2018-08-03T21:11:30.531Z,55921.59
2018-08-03T21:13:59.758Z,55919.54
2018-08-03T21:16:29.422Z,55944.21
2018-08-03T21:18:58.973Z,55924.68
2018-08-03T21:21:28.884Z,55942.16
2018-08-03T21:23:58.590Z,55907.20
2018-08-03T21:26:28.563Z,55913.36
2018-08-03T21:28:57.841Z,55925.70
2018-08-03T21:31:27.949Z,55924.68
2018-08-03T21:33:57.806Z,55924.68
2018-08-03T21:36:27.297Z,55919.54
2018-08-03T21:38:56.973Z,55916.45
2018-08-03T21:41:26.506Z,55934.96
2018-08-03T21:43:56.131Z,55944.21
2018-08-03T21:46:25.360Z,55930.84
2018-08-03T21:48:54.635Z,55924.68
2018-08-03T21:51:23.907Z,55903.08
2018-08-03T21:53:53.520Z,55938.04
2018-08-03T21:56:23.210Z,55927.76
2018-08-03T21:58:52.533Z,55967.86
2018-08-03T22:01:22.208Z,55925.70
2018-08-03T22:03:51.495Z,55934.96
2018-08-03T22:06:20.806Z,55942.16
2018-08-03T22:08:50.033Z,55960.66
2018-08-03T22:11:19.307Z,55939.07
2018-08-03T22:13:48.591Z,55960.66
2018-08-03T22:16:17.887Z,55924.68
2018-08-03T22:18:47.571Z,55944.21
2018-08-03T22:21:16.608Z,55960.66
2018-08-03T22:23:45.842Z,55938.04
2018-08-03T22:26:15.098Z,55922.62
2018-08-03T22:28:44.735Z,55932.90
2018-08-03T22:31:14.026Z,55905.14
2018-08-03T22:33:43.325Z,55938.04
2018-08-03T22:36:12.708Z,55926.73
2018-08-03T22:38:42.023Z,55955.52
2018-08-03T22:41:11.259Z,55956.55
2018-08-03T22:43:40.946Z,55942.16
2018-08-03T22:46:10.209Z,55926.73
2018-08-03T22:48:39.496Z,55929.82
2018-08-03T22:51:09.222Z,55958.61
2018-08-03T22:53:38.764Z,55946.27
2018-08-03T22:56:08.819Z,55921.59
2018-08-03T22:58:38.084Z,55930.84
2018-08-03T23:01:07.689Z,55946.27
2018-08-03T23:03:37.770Z,55934.96
2018-08-03T23:06:07.705Z,55954.49
2018-08-03T23:08:36.973Z,55964.78
2018-08-03T23:11:06.198Z,55932.90
2018-08-03T23:13:35.417Z,55964.78
2018-08-03T23:16:04.725Z,55929.82
2018-08-03T23:18:34.244Z,55948.32
2018-08-03T23:21:03.964Z,55955.52
2018-08-03T23:23:33.267Z,55952.44
2018-08-03T23:26:02.541Z,55935.98
2018-08-03T23:28:31.889Z,55955.52
2018-08-03T23:31:01.625Z,55965.80
2018-08-03T23:33:30.870Z,55948.32
2018-08-03T23:36:00.447Z,55952.44
2018-08-03T23:38:30.016Z,55933.93
2018-08-03T23:40:59.570Z,55940.10
2018-08-03T23:43:29.014Z,55961.69
2018-08-03T23:45:58.243Z,55942.16
2018-08-03T23:48:27.771Z,55954.49
2018-08-03T23:50:57.040Z,55964.78
2018-08-03T23:53:26.751Z,55927.76
2018-08-03T23:55:56.452Z,55974.03
2018-08-03T23:58:26.140Z,55976.09
